Weather reports worldwide

Advertisment
Dalwhinnie, United Kingdom (99005): temperature & dewpoint: 03.04.2020 12:00:00 - 09.04.2020 12:00:00 (BST)Dalwhinnie, United Kingdom (99005): precipitation: 03.04.2020 12:00:00 - 09.04.2020 12:00:00 (BST)
Date & Time tt [°C] td [°C] rr [mm]
09.04.2020 12:00:00 - - -
09.04.2020 11:00:00 5,5 2,3 0,0
09.04.2020 10:00:00 4,8 1,3 0,0
09.04.2020 09:00:00 4,6 1,2 0,0
09.04.2020 08:00:00 3,9 0,9 0,0
09.04.2020 07:00:00 3,6 0,8 0,0
09.04.2020 06:00:00 3,4 0,9 0,0
09.04.2020 05:00:00 3,4 1,7 0,0
09.04.2020 04:00:00 2,7 1,9 0,0
09.04.2020 03:00:00 2,7 1,8 0,0
09.04.2020 02:00:00 2,5 1,7 0,0
09.04.2020 01:00:00 2,9 1,6 0,0
09.04.2020 00:00:00 3,4 2,5 0,0
08.04.2020 23:00:00 3,6 2,8 0,0
08.04.2020 22:00:00 3,8 3,0 0,0
08.04.2020 21:00:00 4,2 3,3 0,4
08.04.2020 20:00:00 5,0 3,8 0,4
08.04.2020 19:00:00 8,4 6,5 0,0
08.04.2020 18:00:00 9,2 6,6 0,0
08.04.2020 17:00:00 8,7 6,6 0,0
08.04.2020 16:00:00 8,9 6,9 0,0
08.04.2020 15:00:00 9,2 7,0 0,6
08.04.2020 14:00:00 9,5 6,4 0,0
08.04.2020 13:00:00 8,6 6,5 0,0
08.04.2020 12:00:00 7,1 5,9 0,0
08.04.2020 11:00:00 6,7 5,3 0,0
08.04.2020 10:00:00 6,3 5,3 0,2
08.04.2020 09:00:00 5,9 4,8 0,0
08.04.2020 08:00:00 5,6 4,5 0,0
08.04.2020 07:00:00 5,5 4,1 0,0
08.04.2020 06:00:00 5,9 3,7 0,0
08.04.2020 05:00:00 5,7 3,4 0,0
08.04.2020 04:00:00 6,1 3,4 0,0
08.04.2020 03:00:00 6,0 2,8 0,0
08.04.2020 02:00:00 6,2 2,3 0,0
08.04.2020 01:00:00 5,2 1,4 0,0
08.04.2020 00:00:00 5,3 1,0 0,0
07.04.2020 23:00:00 6,2 1,0 0,0
07.04.2020 22:00:00 5,7 0,7 0,0
07.04.2020 21:00:00 7,1 0,4 0,0
07.04.2020 20:00:00 7,8 1,1 0,0
07.04.2020 19:00:00 8,7 1,6 0,0
07.04.2020 18:00:00 9,3 0,5 0,0
07.04.2020 17:00:00 10,6 0,7 0,0
07.04.2020 16:00:00 10,5 0,9 0,0
07.04.2020 15:00:00 10,4 1,7 0,0
07.04.2020 14:00:00 9,5 1,1 0,0
07.04.2020 13:00:00 9,3 1,0 0,0
07.04.2020 12:00:00 9,0 0,8 0,0
07.04.2020 11:00:00 7,1 0,6 0,0
07.04.2020 10:00:00 6,5 1,7 0,0
07.04.2020 09:00:00 4,9 1,7 0,0
07.04.2020 08:00:00 4,0 1,5 0,0
07.04.2020 07:00:00 3,6 1,1 0,0
07.04.2020 06:00:00 3,6 0,7 0,0
07.04.2020 05:00:00 4,2 0,0 0,0
07.04.2020 04:00:00 3,4 0,1 0,0
07.04.2020 03:00:00 4,1 0,6 0,0
07.04.2020 02:00:00 3,9 1,1 0,0
07.04.2020 01:00:00 3,8 1,2 0,0
07.04.2020 00:00:00 4,1 1,4 0,0
06.04.2020 23:00:00 3,7 0,9 0,0
06.04.2020 22:00:00 3,6 0,4 0,0
06.04.2020 21:00:00 4,7 0,2 0,0
06.04.2020 20:00:00 5,2 0,2 0,0
06.04.2020 19:00:00 4,9 0,9 0,2
06.04.2020 18:00:00 7,4 -0,5 0,0
06.04.2020 17:00:00 6,4 1,9 0,0
06.04.2020 16:00:00 8,5 -1,0 0,0
06.04.2020 15:00:00 8,3 2,1 0,0
06.04.2020 14:00:00 6,8 3,2 0,4
06.04.2020 13:00:00 7,0 4,0 0,4
06.04.2020 12:00:00 6,3 2,8 0,0
06.04.2020 11:00:00 6,3 3,5 0,0
06.04.2020 10:00:00 6,7 1,6 0,0
06.04.2020 09:00:00 6,3 4,3 0,2
06.04.2020 08:00:00 6,6 4,3 0,0
06.04.2020 07:00:00 6,8 3,8 0,2
06.04.2020 06:00:00 7,5 4,6 0,2
06.04.2020 05:00:00 7,6 5,2 3,0
06.04.2020 04:00:00 9,6 8,2 1,4
06.04.2020 03:00:00 9,8 7,8 1,4
06.04.2020 02:00:00 10,3 7,6 0,4
06.04.2020 01:00:00 10,6 7,6 0,8
06.04.2020 00:00:00 8,9 6,8 2,4
05.04.2020 23:00:00 10,2 6,0 0,2
05.04.2020 22:00:00 13,0 4,7 0,0
05.04.2020 21:00:00 11,4 4,5 0,0
05.04.2020 20:00:00 10,5 4,4 0,0
05.04.2020 19:00:00 11,1 4,3 0,0
05.04.2020 18:00:00 11,2 4,2 0,0
05.04.2020 17:00:00 11,8 3,5 0,0
05.04.2020 16:00:00 12,1 3,1 0,0
05.04.2020 15:00:00 11,2 3,4 0,0
05.04.2020 14:00:00 11,4 3,2 0,0
05.04.2020 13:00:00 10,0 3,3 0,0
05.04.2020 12:00:00 8,6 2,8 0,0
05.04.2020 11:00:00 8,7 2,5 0,0
05.04.2020 10:00:00 7,3 2,0 0,0
05.04.2020 09:00:00 6,7 2,3 0,0
05.04.2020 08:00:00 6,1 2,0 0,0
05.04.2020 07:00:00 6,2 1,7 0,0
05.04.2020 06:00:00 7,1 2,1 0,0
05.04.2020 05:00:00 7,0 2,1 0,0
05.04.2020 04:00:00 6,3 1,3 0,0
05.04.2020 03:00:00 6,8 2,8 0,0
05.04.2020 02:00:00 7,1 3,9 0,0
05.04.2020 01:00:00 6,6 3,0 0,0
05.04.2020 00:00:00 6,3 2,7 0,0
04.04.2020 23:00:00 5,7 1,9 0,0
04.04.2020 22:00:00 5,6 2,3 0,0
04.04.2020 21:00:00 5,6 2,5 0,0
04.04.2020 20:00:00 6,2 2,0 0,0
04.04.2020 19:00:00 6,3 1,5 0,0
04.04.2020 18:00:00 6,9 0,6 0,0
04.04.2020 17:00:00 6,5 1,2 0,0
04.04.2020 16:00:00 5,7 3,4 0,0
04.04.2020 15:00:00 5,8 3,1 0,2
04.04.2020 14:00:00 6,8 1,8 0,0
04.04.2020 13:00:00 6,9 1,7 0,0
04.04.2020 12:00:00 6,5 1,6 0,0
04.04.2020 11:00:00 5,9 2,9 0,0
04.04.2020 10:00:00 5,0 2,3 0,0
04.04.2020 09:00:00 4,7 2,2 0,0
04.04.2020 08:00:00 3,8 2,7 0,0
04.04.2020 07:00:00 3,6 2,6 0,0
04.04.2020 06:00:00 3,3 2,3 0,0
04.04.2020 05:00:00 3,0 2,1 0,2
04.04.2020 04:00:00 2,8 1,7 0,0
04.04.2020 03:00:00 2,9 1,8 0,0
04.04.2020 02:00:00 2,6 1,6 0,0
04.04.2020 01:00:00 2,6 1,1 0,0
04.04.2020 00:00:00 2,5 1,2 0,0
03.04.2020 23:00:00 2,5 0,9 0,2
03.04.2020 22:00:00 2,7 1,1 0,0
03.04.2020 21:00:00 2,1 0,7 0,0
03.04.2020 20:00:00 3,1 0,8 0,0
03.04.2020 19:00:00 3,4 1,3 0,2
03.04.2020 18:00:00 3,5 1,8 0,2
03.04.2020 17:00:00 4,3 0,4 0,0
03.04.2020 16:00:00 4,3 -0,7 0,0
03.04.2020 15:00:00 4,4 -0,2 0,0
03.04.2020 14:00:00 3,9 0,0 0,0
03.04.2020 13:00:00 3,2 -1,4 0,0
03.04.2020 12:00:00 2,0 -0,9 0,0

tt = temperature
td = dewpoint
rr = precipitation

Next stations